createdAt,value
2019-02-27T00:02:17.328Z,96.40
2019-02-27T00:05:08.474Z,96.40
2019-02-27T00:07:56.691Z,96.20
2019-02-27T00:10:39.240Z,95.80
2019-02-27T00:13:29.541Z,95.90
2019-02-27T00:18:58.557Z,95.80
2019-02-27T00:21:48.938Z,95.80
2019-02-27T00:24:29.880Z,95.90
2019-02-27T00:27:09.956Z,95.80
2019-02-27T00:29:47.904Z,95.80
2019-02-27T00:32:26.911Z,95.90
2019-02-27T00:35:07.269Z,96.30
2019-02-27T00:40:24.845Z,96.30
2019-02-27T00:43:02.896Z,96.30
2019-02-27T00:45:41.227Z,96.50
2019-02-27T00:50:59.761Z,96.80
2019-02-27T01:02:01.708Z,96.20
2019-02-27T01:04:40.676Z,95.80
2019-02-27T01:07:37.161Z,95.60
2019-02-27T01:10:19.447Z,95.60
2019-02-27T01:13:03.259Z,95.60
2019-02-27T01:15:45.932Z,95.80
2019-02-27T01:18:24.105Z,95.60
2019-02-27T01:21:02.530Z,95.70
2019-02-27T01:23:43.740Z,95.70
2019-02-27T01:26:31.587Z,95.70
2019-02-27T01:29:12.034Z,96.20
2019-02-27T01:31:52.183Z,96.20
2019-02-27T01:37:24.892Z,96.90
2019-02-27T01:40:05.052Z,97.10
2019-02-27T01:42:54.815Z,97.30
2019-02-27T01:45:32.653Z,97.40
2019-02-27T01:48:11.985Z,97.40
2019-02-27T01:50:55.222Z,97.70
2019-02-27T01:56:21.404Z,97.80
2019-02-27T01:58:59.941Z,98.50
2019-02-27T02:01:37.859Z,97.60
2019-02-27T02:04:20.052Z,98.70
2019-02-27T02:06:56.069Z,98.50
2019-02-27T02:09:39.708Z,98.70
2019-02-27T02:12:21.811Z,98.70
2019-02-27T02:15:17.589Z,98.90
2019-02-27T02:18:45.800Z,98.20
2019-02-27T02:22:08.896Z,95.70
2019-02-27T02:25:15.301Z,94.30
2019-02-27T02:31:30.299Z,93.10
2019-02-27T02:35:00.427Z,93.00
2019-02-27T02:38:17.565Z,92.30
2019-02-27T02:41:32.893Z,91.40
2019-02-27T02:45:19.745Z,91.00
2019-02-27T02:49:08.010Z,90.40
2019-02-27T02:52:40.165Z,89.40
2019-02-27T02:59:30.603Z,86.80
2019-02-27T03:02:42.829Z,85.40
2019-02-27T03:12:04.771Z,83.10
2019-02-27T03:15:15.255Z,83.20
2019-02-27T03:18:48.319Z,83.10
2019-02-27T03:21:50.130Z,83.00
2019-02-27T03:25:27.878Z,83.30
2019-02-27T03:28:45.196Z,82.70
2019-02-27T03:31:57.461Z,82.50
2019-02-27T03:37:58.365Z,82.00
2019-02-27T03:43:45.706Z,83.10
2019-02-27T03:46:40.786Z,83.10
2019-02-27T03:49:51.502Z,83.40
2019-02-27T03:53:16.956Z,83.50
2019-02-27T03:56:43.920Z,84.80
2019-02-27T04:00:07.354Z,85.40
2019-02-27T04:03:18.185Z,86.40
2019-02-27T04:06:20.133Z,87.10
2019-02-27T04:08:58.615Z,88.70
2019-02-27T04:11:41.554Z,89.40
2019-02-27T04:14:47.806Z,90.20
2019-02-27T04:17:29.522Z,90.50
2019-02-27T04:20:06.800Z,90.80
2019-02-27T04:22:45.407Z,91.10
2019-02-27T04:25:22.728Z,91.20
2019-02-27T04:28:00.357Z,91.80
2019-02-27T04:30:37.471Z,90.80
2019-02-27T04:33:14.619Z,92.40
2019-02-27T04:36:01.541Z,92.70
2019-02-27T04:38:38.569Z,91.70
2019-02-27T04:41:17.895Z,95.20
2019-02-27T04:43:55.113Z,93.70
2019-02-27T04:46:32.399Z,94.50
2019-02-27T04:49:10.591Z,95.10
2019-02-27T04:54:26.466Z,95.00
2019-02-27T04:57:03.603Z,94.30
2019-02-27T04:59:42.831Z,95.40
2019-02-27T05:02:19.934Z,95.70
2019-02-27T05:04:57.375Z,96.20
2019-02-27T05:07:36.061Z,96.40
2019-02-27T05:10:15.545Z,96.50
2019-02-27T05:12:54.504Z,96.90
2019-02-27T05:15:31.156Z,97.00
2019-02-27T05:18:08.791Z,96.90
2019-02-27T05:23:23.380Z,96.70
2019-02-27T05:26:00.708Z,97.00
2019-02-27T05:28:37.776Z,96.80
2019-02-27T05:31:18.298Z,97.50
2019-02-27T05:33:55.455Z,98.10
2019-02-27T05:36:33.336Z,97.90
2019-02-27T05:39:14.872Z,97.60
2019-02-27T05:41:51.226Z,99.60
2019-02-27T05:44:28.773Z,97.30
2019-02-27T05:49:49.846Z,97.70
2019-02-27T05:57:45.000Z,97.80
2019-02-27T06:00:22.827Z,98.10
2019-02-27T06:03:00.732Z,97.80
2019-02-27T06:05:39.410Z,97.00
2019-02-27T06:08:16.936Z,96.20
2019-02-27T06:10:55.989Z,95.80
2019-02-27T06:13:33.971Z,94.70
2019-02-27T06:16:11.689Z,94.40
2019-02-27T06:18:49.273Z,93.50
2019-02-27T06:24:03.169Z,93.50
2019-02-27T06:26:41.607Z,92.10
2019-02-27T06:29:18.621Z,91.00
2019-02-27T06:34:34.219Z,85.10
2019-02-27T06:37:15.299Z,82.30
2019-02-27T06:39:50.145Z,78.80
2019-02-27T06:42:27.519Z,85.60
2019-02-27T06:47:41.626Z,74.90
2019-02-27T06:53:03.073Z,69.70
2019-02-27T06:55:40.742Z,68.90
2019-02-27T06:58:17.777Z,67.20
2019-02-27T07:00:54.908Z,67.50
2019-02-27T07:03:32.954Z,67.50
2019-02-27T07:08:46.894Z,62.20
2019-02-27T07:11:25.430Z,60.30
2019-02-27T07:19:33.424Z,59.70
2019-02-27T07:22:12.662Z,60.10
2019-02-27T07:27:28.289Z,59.20
2019-02-27T07:30:07.404Z,57.50
2019-02-27T07:32:45.824Z,54.60
2019-02-27T07:35:25.513Z,54.90
2019-02-27T07:38:02.147Z,54.80
2019-02-27T07:40:42.719Z,54.40
2019-02-27T07:53:45.915Z,45.40
2019-02-27T07:56:24.117Z,43.40
2019-02-27T07:59:02.293Z,43.80
2019-02-27T08:01:43.781Z,43.60
2019-02-27T08:04:19.241Z,44.00
2019-02-27T08:06:57.035Z,43.50
2019-02-27T08:09:34.217Z,42.90
2019-02-27T08:12:11.326Z,41.40
2019-02-27T08:14:48.484Z,44.40
2019-02-27T08:17:26.404Z,50.10
2019-02-27T08:20:04.198Z,52.80
2019-02-27T08:22:42.041Z,53.00
2019-02-27T08:25:20.429Z,50.70
2019-02-27T08:27:57.749Z,51.30
2019-02-27T08:30:34.852Z,54.30
2019-02-27T08:33:11.987Z,57.50
2019-02-27T08:35:49.526Z,56.10
2019-02-27T08:38:27.592Z,55.40
2019-02-27T08:41:04.946Z,55.80
2019-02-27T08:43:53.876Z,54.00
2019-02-27T08:46:30.984Z,51.80
2019-02-27T08:49:09.258Z,50.70
2019-02-27T08:51:58.616Z,49.90
2019-02-27T08:54:35.788Z,49.90
2019-02-27T08:57:13.906Z,46.70
2019-02-27T09:00:03.166Z,46.60
2019-02-27T09:02:42.118Z,45.30
2019-02-27T09:05:20.956Z,44.20
2019-02-27T09:07:59.138Z,43.00
2019-02-27T09:10:36.307Z,45.00
2019-02-27T09:13:13.443Z,43.40
2019-02-27T09:15:50.692Z,45.30
2019-02-27T09:18:28.405Z,41.90
2019-02-27T09:21:06.009Z,40.00
2019-02-27T09:23:43.583Z,40.50
2019-02-27T09:26:21.186Z,39.70
2019-02-27T09:28:58.474Z,39.60
2019-02-27T09:31:37.755Z,41.40
2019-02-27T09:34:14.443Z,41.70
2019-02-27T09:36:52.152Z,41.60
2019-02-27T09:39:31.095Z,39.00
2019-02-27T09:42:08.602Z,38.90
2019-02-27T09:44:46.217Z,39.20
2019-02-27T09:47:25.746Z,38.60
2019-02-27T09:50:01.956Z,39.00
2019-02-27T09:52:40.317Z,37.80
2019-02-27T09:55:19.995Z,38.20
2019-02-27T09:57:56.721Z,39.10
2019-02-27T10:00:42.089Z,40.10
2019-02-27T10:03:21.147Z,45.30
2019-02-27T10:05:58.355Z,47.80
2019-02-27T10:08:35.579Z,50.80
2019-02-27T10:11:12.693Z,53.20
2019-02-27T10:13:50.013Z,54.40
2019-02-27T10:16:28.003Z,54.80
2019-02-27T10:19:05.216Z,54.00
2019-02-27T10:21:44.586Z,49.70
2019-02-27T10:24:21.365Z,47.20
2019-02-27T10:26:58.961Z,46.70
2019-02-27T10:29:36.125Z,46.80
2019-02-27T10:32:13.567Z,47.00
2019-02-27T10:34:53.678Z,50.00
2019-02-27T10:37:29.961Z,51.40
2019-02-27T10:40:11.423Z,52.60
2019-02-27T10:42:50.415Z,53.90
2019-02-27T10:45:27.246Z,54.60
2019-02-27T10:48:04.330Z,54.60
2019-02-27T10:50:42.013Z,53.90
2019-02-27T10:53:19.422Z,53.60
2019-02-27T10:55:56.748Z,54.20
2019-02-27T10:58:35.069Z,54.60
2019-02-27T11:01:12.551Z,54.70
2019-02-27T11:03:50.196Z,55.50
2019-02-27T11:06:33.910Z,55.70
2019-02-27T11:09:19.218Z,56.70
2019-02-27T11:11:56.493Z,56.50
2019-02-27T11:17:10.702Z,56.20
2019-02-27T11:20:06.656Z,56.30
2019-02-27T11:22:43.977Z,55.00
2019-02-27T11:25:23.251Z,54.90
2019-02-27T11:28:01.238Z,55.00
2019-02-27T11:30:38.825Z,51.30
2019-02-27T11:33:25.051Z,49.50
2019-02-27T11:35:55.886Z,46.80
2019-02-27T11:38:33.464Z,43.10
2019-02-27T11:41:15.151Z,41.30
2019-02-27T11:43:49.847Z,40.40
2019-02-27T11:46:27.119Z,40.60
2019-02-27T11:49:04.411Z,39.00
2019-02-27T11:51:42.062Z,38.40
2019-02-27T11:54:19.350Z,38.20
2019-02-27T11:56:57.052Z,38.10
2019-02-27T11:59:34.498Z,38.30
2019-02-27T12:02:11.597Z,36.50
2019-02-27T12:04:53.452Z,36.30
2019-02-27T12:10:06.573Z,35.90
2019-02-27T12:12:45.135Z,35.60
2019-02-27T12:15:24.382Z,35.70
2019-02-27T12:18:01.880Z,36.10
2019-02-27T12:20:40.381Z,35.40
2019-02-27T12:23:17.618Z,35.90
2019-02-27T12:25:54.839Z,35.70
2019-02-27T12:28:31.996Z,34.90
2019-02-27T12:31:11.089Z,35.40
2019-02-27T12:33:47.978Z,35.70
2019-02-27T12:36:25.163Z,35.50
2019-02-27T12:39:02.443Z,34.60
2019-02-27T12:41:41.268Z,33.40
2019-02-27T12:44:18.691Z,32.50
2019-02-27T12:46:55.990Z,32.00
2019-02-27T12:49:33.278Z,32.20
2019-02-27T12:52:12.102Z,32.10
2019-02-27T12:54:49.674Z,32.00
2019-02-27T12:57:26.942Z,33.10
2019-02-27T13:00:05.766Z,33.90
2019-02-27T13:02:43.631Z,33.90
2019-02-27T13:05:21.052Z,33.80
2019-02-27T13:07:58.287Z,33.70
2019-02-27T13:10:35.775Z,33.40
2019-02-27T13:13:12.900Z,32.50
2019-02-27T13:15:50.138Z,32.80
2019-02-27T13:18:31.642Z,33.20
2019-02-27T13:21:06.237Z,33.40
2019-02-27T13:23:43.379Z,33.30
2019-02-27T13:26:21.514Z,34.70
2019-02-27T13:28:58.743Z,34.70
2019-02-27T13:31:36.161Z,35.20
2019-02-27T13:34:13.857Z,34.60
2019-02-27T13:36:51.535Z,34.50
2019-02-27T13:39:28.610Z,34.20
2019-02-27T13:42:18.639Z,34.60
2019-02-27T13:44:56.538Z,35.20
2019-02-27T13:47:33.784Z,35.20
2019-02-27T13:50:10.919Z,34.20
2019-02-27T13:52:50.585Z,33.20
2019-02-27T13:55:27.378Z,33.80
2019-02-27T13:58:04.990Z,34.40
2019-02-27T14:00:42.206Z,34.10
2019-02-27T14:03:19.322Z,33.30
2019-02-27T14:05:57.059Z,33.40
2019-02-27T14:08:34.233Z,33.40
2019-02-27T14:11:11.368Z,33.70
2019-02-27T14:13:48.631Z,34.10
2019-02-27T14:16:25.808Z,34.30
2019-02-27T14:19:03.109Z,35.40
2019-02-27T14:21:40.169Z,35.10
2019-02-27T14:24:20.321Z,35.90
2019-02-27T14:26:57.141Z,36.50
2019-02-27T14:32:10.878Z,36.10
2019-02-27T14:37:30.393Z,36.40
2019-02-27T14:40:09.855Z,36.40
2019-02-27T14:45:23.609Z,38.50
2019-02-27T18:16:37.330Z,66.60
2019-02-27T18:21:54.225Z,65.90
2019-02-27T18:24:34.115Z,64.00
2019-02-27T18:27:10.855Z,66.10
2019-02-27T18:33:24.015Z,63.40
2019-02-27T18:38:39.748Z,62.80
2019-02-27T18:43:53.450Z,62.70
2019-02-27T18:46:30.831Z,62.10
2019-02-27T18:49:27.047Z,61.40
2019-02-27T18:52:06.705Z,61.80
2019-02-27T18:54:55.610Z,61.80
2019-02-27T18:57:32.692Z,61.60
2019-02-27T19:00:14.946Z,61.80
2019-02-27T19:03:05.488Z,60.30
2019-02-27T19:08:20.207Z,61.90
2019-02-27T19:10:57.487Z,62.50
2019-02-27T19:13:35.210Z,62.70
2019-02-27T19:16:12.538Z,62.20
2019-02-27T19:18:50.010Z,62.10
2019-02-27T19:21:27.416Z,62.30
2019-02-27T19:24:04.810Z,62.70
2019-02-27T19:26:44.324Z,62.90
2019-02-27T19:31:58.768Z,62.20
2019-02-27T19:34:36.657Z,63.10
2019-02-27T19:37:13.668Z,63.40
2019-02-27T19:39:53.417Z,62.70
2019-02-27T19:42:31.157Z,62.60
2019-02-27T19:45:08.643Z,62.50
2019-02-27T19:47:46.174Z,62.80
2019-02-27T19:50:23.333Z,62.80
2019-02-27T19:53:05.207Z,63.50
2019-02-27T19:55:39.094Z,63.70
2019-02-27T19:58:18.094Z,64.60
2019-02-27T20:00:56.194Z,65.30
2019-02-27T20:03:35.429Z,65.70
2019-02-27T20:06:12.437Z,66.50
2019-02-27T20:08:49.769Z,67.10
2019-02-27T20:11:26.763Z,67.70
2019-02-27T20:14:04.142Z,68.40
2019-02-27T20:16:41.390Z,68.80
2019-02-27T20:19:22.356Z,68.90
2019-02-27T20:21:59.309Z,69.60
2019-02-27T20:24:36.755Z,69.20
2019-02-27T20:27:14.066Z,70.00
2019-02-27T20:29:53.814Z,70.50
2019-02-27T20:32:30.981Z,70.30
2019-02-27T20:37:46.227Z,70.90
2019-02-27T20:40:23.459Z,71.00
2019-02-27T20:43:01.703Z,71.60
2019-02-27T20:45:40.027Z,71.70
2019-02-27T20:48:18.966Z,72.10
2019-02-27T20:50:56.504Z,72.40
2019-02-27T20:53:33.580Z,72.50
2019-02-27T20:56:10.954Z,73.70
2019-02-27T20:58:51.130Z,74.20
2019-02-27T21:01:27.007Z,74.80
2019-02-27T21:04:04.228Z,74.50
2019-02-27T21:06:47.221Z,74.80
2019-02-27T21:09:20.526Z,74.80
2019-02-27T21:11:57.585Z,75.30
2019-02-27T21:14:34.772Z,75.70
2019-02-27T21:17:11.978Z,76.30
2019-02-27T21:19:49.424Z,76.70
2019-02-27T21:22:27.929Z,76.90
2019-02-27T21:25:05.565Z,77.20
2019-02-27T21:27:43.619Z,78.20
2019-02-27T21:30:33.134Z,78.60
2019-02-27T21:33:12.099Z,78.10
2019-02-27T21:35:49.487Z,78.30
2019-02-27T21:38:28.347Z,78.30
2019-02-27T21:41:11.472Z,78.50
2019-02-27T21:43:44.387Z,79.00
2019-02-27T21:46:23.222Z,78.60
2019-02-27T21:49:00.947Z,79.70
2019-02-27T21:51:39.129Z,80.00
2019-02-27T21:54:16.426Z,80.40
2019-02-27T21:56:55.155Z,80.20
2019-02-27T21:59:32.167Z,80.50
2019-02-27T22:02:12.829Z,80.10
2019-02-27T22:04:49.967Z,80.20
2019-02-27T22:07:27.179Z,80.80
2019-02-27T22:10:04.933Z,80.90
2019-02-27T22:12:42.318Z,80.80
2019-02-27T22:15:23.292Z,81.30
2019-02-27T22:18:00.409Z,81.30
2019-02-27T22:20:37.734Z,81.30
2019-02-27T22:23:20.887Z,82.10
2019-02-27T22:28:34.670Z,83.00
2019-02-27T22:31:12.497Z,82.50
2019-02-27T22:33:49.748Z,82.90
2019-02-27T22:36:27.253Z,83.40
2019-02-27T22:39:06.141Z,83.20
2019-02-27T22:41:46.801Z,82.40
2019-02-27T22:44:26.355Z,82.10
2019-02-27T22:47:03.048Z,83.70
2019-02-27T22:49:40.719Z,83.60
2019-02-27T22:52:19.232Z,81.70
2019-02-27T22:54:56.885Z,83.30
2019-02-27T22:57:34.134Z,83.30
2019-02-27T23:01:01.841Z,81.30
2019-02-27T23:03:44.071Z,81.60
2019-02-27T23:06:21.437Z,80.00
2019-02-27T23:08:58.680Z,82.20
2019-02-27T23:11:36.757Z,81.50
2019-02-27T23:14:14.388Z,81.00
2019-02-27T23:16:52.938Z,78.60
2019-02-27T23:19:31.940Z,78.80
2019-02-27T23:22:09.056Z,80.30
2019-02-27T23:24:46.300Z,78.30
2019-02-27T23:27:26.182Z,79.60
2019-02-27T23:30:04.935Z,79.40
2019-02-27T23:32:42.559Z,77.30
2019-02-27T23:35:20.412Z,76.20
2019-02-27T23:38:00.529Z,75.50
2019-02-27T23:40:36.803Z,77.30
2019-02-27T23:43:14.274Z,77.00
2019-02-27T23:45:51.583Z,76.10
2019-02-27T23:48:28.765Z,73.80
2019-02-27T23:51:06.036Z,74.00
2019-02-27T23:53:43.239Z,75.90
2019-02-27T23:56:20.683Z,76.00
2019-02-27T23:59:02.389Z,75.30
